sensor_id;sensor_type;location;lat;lon;timestamp;P1;durP1;ratioP1;P2;durP2;ratioP2
1414;SDS011;702;49.466;11.086;2022-12-07T00:00:55;8.67;;;7.87;;
1414;SDS011;702;49.466;11.086;2022-12-07T00:03:30;8.20;;;7.40;;
1414;SDS011;702;49.466;11.086;2022-12-07T00:05:58;9.37;;;8.47;;
1414;SDS011;702;49.466;11.086;2022-12-07T00:08:25;11.03;;;9.03;;
1414;SDS011;702;49.466;11.086;2022-12-07T00:10:54;9.50;;;8.50;;
1414;SDS011;702;49.466;11.086;2022-12-07T00:13:22;10.27;;;9.20;;
1414;SDS011;702;49.466;11.086;2022-12-07T00:15:54;9.83;;;8.63;;
1414;SDS011;702;49.466;11.086;2022-12-07T00:18:22;10.97;;;9.87;;
1414;SDS011;702;49.466;11.086;2022-12-07T00:20:49;10.80;;;9.80;;
1414;SDS011;702;49.466;11.086;2022-12-07T00:23:16;11.70;;;8.90;;
1414;SDS011;702;49.466;11.086;2022-12-07T00:25:43;9.90;;;8.90;;
1414;SDS011;702;49.466;11.086;2022-12-07T00:28:12;11.70;;;10.00;;
1414;SDS011;702;49.466;11.086;2022-12-07T00:30:39;10.87;;;9.67;;
1414;SDS011;702;49.466;11.086;2022-12-07T00:33:07;10.87;;;9.73;;
1414;SDS011;702;49.466;11.086;2022-12-07T00:35:34;11.57;;;10.23;;
1414;SDS011;702;49.466;11.086;2022-12-07T00:38:01;12.67;;;10.37;;
1414;SDS011;702;49.466;11.086;2022-12-07T00:40:29;13.50;;;10.07;;
1414;SDS011;702;49.466;11.086;2022-12-07T00:42:56;12.07;;;9.47;;
1414;SDS011;702;49.466;11.086;2022-12-07T00:45:24;12.10;;;10.63;;
1414;SDS011;702;49.466;11.086;2022-12-07T00:47:52;11.53;;;10.33;;
1414;SDS011;702;49.466;11.086;2022-12-07T00:50:19;10.73;;;9.63;;
1414;SDS011;702;49.466;11.086;2022-12-07T00:52:46;12.70;;;10.60;;
1414;SDS011;702;49.466;11.086;2022-12-07T00:55:13;14.13;;;11.17;;
1414;SDS011;702;49.466;11.086;2022-12-07T00:57:41;13.30;;;9.20;;
1414;SDS011;702;49.466;11.086;2022-12-07T01:00:08;11.17;;;9.63;;
1414;SDS011;702;49.466;11.086;2022-12-07T01:02:37;11.93;;;10.50;;
1414;SDS011;702;49.466;11.086;2022-12-07T01:05:06;11.33;;;10.13;;
1414;SDS011;702;49.466;11.086;2022-12-07T01:07:34;12.10;;;10.70;;
1414;SDS011;702;49.466;11.086;2022-12-07T01:10:01;11.30;;;10.10;;
1414;SDS011;702;49.466;11.086;2022-12-07T01:12:30;12.30;;;10.60;;
1414;SDS011;702;49.466;11.086;2022-12-07T01:14:57;13.47;;;11.20;;
1414;SDS011;702;49.466;11.086;2022-12-07T01:17:25;12.03;;;10.73;;
1414;SDS011;702;49.466;11.086;2022-12-07T01:19:54;12.13;;;10.73;;
1414;SDS011;702;49.466;11.086;2022-12-07T01:22:21;14.13;;;11.70;;
1414;SDS011;702;49.466;11.086;2022-12-07T01:24:48;14.17;;;11.53;;
1414;SDS011;702;49.466;11.086;2022-12-07T01:27:16;13.53;;;10.83;;
1414;SDS011;702;49.466;11.086;2022-12-07T01:29:43;12.57;;;10.97;;
1414;SDS011;702;49.466;11.086;2022-12-07T01:32:10;12.80;;;11.50;;
1414;SDS011;702;49.466;11.086;2022-12-07T01:34:37;12.90;;;11.57;;
1414;SDS011;702;49.466;11.086;2022-12-07T01:37:06;13.53;;;10.80;;
1414;SDS011;702;49.466;11.086;2022-12-07T01:39:34;13.40;;;11.00;;
1414;SDS011;702;49.466;11.086;2022-12-07T01:42:01;14.33;;;12.83;;
1414;SDS011;702;49.466;11.086;2022-12-07T01:44:29;12.90;;;11.33;;
1414;SDS011;702;49.466;11.086;2022-12-07T01:46:59;15.00;;;12.00;;
1414;SDS011;702;49.466;11.086;2022-12-07T01:49:29;13.80;;;12.50;;
1414;SDS011;702;49.466;11.086;2022-12-07T01:52:02;13.27;;;11.77;;
1414;SDS011;702;49.466;11.086;2022-12-07T01:54:40;12.40;;;10.20;;
1414;SDS011;702;49.466;11.086;2022-12-07T01:57:08;15.53;;;11.90;;
1414;SDS011;702;49.466;11.086;2022-12-07T01:59:36;13.27;;;11.60;;
1414;SDS011;702;49.466;11.086;2022-12-07T02:02:05;15.53;;;12.30;;
1414;SDS011;702;49.466;11.086;2022-12-07T02:04:38;15.23;;;11.90;;
1414;SDS011;702;49.466;11.086;2022-12-07T02:07:07;13.80;;;10.87;;
1414;SDS011;702;49.466;11.086;2022-12-07T02:09:35;14.10;;;11.53;;
1414;SDS011;702;49.466;11.086;2022-12-07T02:12:02;15.03;;;11.50;;
1414;SDS011;702;49.466;11.086;2022-12-07T02:14:31;12.03;;;10.80;;
1414;SDS011;702;49.466;11.086;2022-12-07T02:17:02;13.97;;;12.13;;
1414;SDS011;702;49.466;11.086;2022-12-07T02:22:49;12.83;;;11.10;;
1414;SDS011;702;49.466;11.086;2022-12-07T02:25:46;14.57;;;11.90;;
1414;SDS011;702;49.466;11.086;2022-12-07T02:28:33;14.73;;;11.30;;
1414;SDS011;702;49.466;11.086;2022-12-07T02:31:06;15.27;;;12.10;;
1414;SDS011;702;49.466;11.086;2022-12-07T02:33:40;15.63;;;12.07;;
1414;SDS011;702;49.466;11.086;2022-12-07T02:36:12;13.43;;;11.93;;
1414;SDS011;702;49.466;11.086;2022-12-07T02:38:50;15.50;;;11.40;;
1414;SDS011;702;49.466;11.086;2022-12-07T02:41:24;15.97;;;12.47;;
1414;SDS011;702;49.466;11.086;2022-12-07T02:43:56;16.30;;;12.03;;
1414;SDS011;702;49.466;11.086;2022-12-07T02:46:28;16.73;;;12.53;;
1414;SDS011;702;49.466;11.086;2022-12-07T02:49:00;17.83;;;13.23;;
1414;SDS011;702;49.466;11.086;2022-12-07T02:51:30;17.33;;;13.30;;
1414;SDS011;702;49.466;11.086;2022-12-07T02:53:58;14.40;;;12.00;;
1414;SDS011;702;49.466;11.086;2022-12-07T02:56:27;17.40;;;12.90;;
1414;SDS011;702;49.466;11.086;2022-12-07T02:59:23;18.20;;;14.10;;
1414;SDS011;702;49.466;11.086;2022-12-07T03:02:03;20.53;;;13.53;;
1414;SDS011;702;49.466;11.086;2022-12-07T03:04:42;16.43;;;12.80;;
1414;SDS011;702;49.466;11.086;2022-12-07T03:07:21;14.10;;;11.73;;
1414;SDS011;702;49.466;11.086;2022-12-07T03:09:58;14.70;;;12.60;;
1414;SDS011;702;49.466;11.086;2022-12-07T03:12:35;16.03;;;12.50;;
1414;SDS011;702;49.466;11.086;2022-12-07T03:15:12;15.50;;;13.00;;
1414;SDS011;702;49.466;11.086;2022-12-07T03:17:46;20.50;;;13.93;;
1414;SDS011;702;49.466;11.086;2022-12-07T03:20:16;19.10;;;13.33;;
1414;SDS011;702;49.466;11.086;2022-12-07T03:22:47;20.17;;;14.40;;
1414;SDS011;702;49.466;11.086;2022-12-07T03:25:16;17.70;;;12.93;;
1414;SDS011;702;49.466;11.086;2022-12-07T03:27:45;16.70;;;12.90;;
1414;SDS011;702;49.466;11.086;2022-12-07T03:30:22;18.37;;;13.50;;
1414;SDS011;702;49.466;11.086;2022-12-07T03:32:56;19.30;;;14.70;;
1414;SDS011;702;49.466;11.086;2022-12-07T03:35:31;18.70;;;13.87;;
1414;SDS011;702;49.466;11.086;2022-12-07T03:38:02;21.07;;;14.30;;
1414;SDS011;702;49.466;11.086;2022-12-07T03:40:40;19.37;;;13.70;;
1414;SDS011;702;49.466;11.086;2022-12-07T03:43:15;17.73;;;14.03;;
1414;SDS011;702;49.466;11.086;2022-12-07T03:45:44;15.10;;;13.17;;
1414;SDS011;702;49.466;11.086;2022-12-07T03:48:32;18.80;;;13.60;;
1414;SDS011;702;49.466;11.086;2022-12-07T03:51:06;17.57;;;12.87;;
1414;SDS011;702;49.466;11.086;2022-12-07T03:53:42;21.83;;;14.30;;
1414;SDS011;702;49.466;11.086;2022-12-07T03:56:16;16.43;;;13.90;;
1414;SDS011;702;49.466;11.086;2022-12-07T03:58:45;18.57;;;14.57;;
1414;SDS011;702;49.466;11.086;2022-12-07T04:01:12;21.23;;;13.97;;
1414;SDS011;702;49.466;11.086;2022-12-07T04:03:41;19.40;;;15.00;;
1414;SDS011;702;49.466;11.086;2022-12-07T04:06:08;20.00;;;14.50;;
1414;SDS011;702;49.466;11.086;2022-12-07T04:08:35;19.43;;;15.17;;
1414;SDS011;702;49.466;11.086;2022-12-07T04:11:03;21.23;;;14.67;;
1414;SDS011;702;49.466;11.086;2022-12-07T04:13:31;20.50;;;14.80;;
1414;SDS011;702;49.466;11.086;2022-12-07T04:16:18;24.17;;;15.70;;
1414;SDS011;702;49.466;11.086;2022-12-07T04:18:47;22.00;;;14.60;;
1414;SDS011;702;49.466;11.086;2022-12-07T04:21:14;18.80;;;14.90;;
1414;SDS011;702;49.466;11.086;2022-12-07T04:23:42;22.87;;;15.67;;
1414;SDS011;702;49.466;11.086;2022-12-07T04:26:09;20.57;;;15.70;;
1414;SDS011;702;49.466;11.086;2022-12-07T04:28:36;20.20;;;14.87;;
1414;SDS011;702;49.466;11.086;2022-12-07T04:31:03;19.47;;;15.43;;
1414;SDS011;702;49.466;11.086;2022-12-07T04:33:31;19.97;;;14.20;;
1414;SDS011;702;49.466;11.086;2022-12-07T04:35:59;22.20;;;15.87;;
1414;SDS011;702;49.466;11.086;2022-12-07T04:38:27;22.17;;;15.23;;
1414;SDS011;702;49.466;11.086;2022-12-07T04:40:54;22.57;;;16.10;;
1414;SDS011;702;49.466;11.086;2022-12-07T04:43:22;21.80;;;15.87;;
1414;SDS011;702;49.466;11.086;2022-12-07T04:45:49;22.80;;;15.67;;
1414;SDS011;702;49.466;11.086;2022-12-07T04:48:16;20.80;;;15.33;;
1414;SDS011;702;49.466;11.086;2022-12-07T04:50:44;24.47;;;16.10;;
1414;SDS011;702;49.466;11.086;2022-12-07T04:53:16;19.03;;;14.40;;
1414;SDS011;702;49.466;11.086;2022-12-07T04:55:45;22.53;;;16.30;;
1414;SDS011;702;49.466;11.086;2022-12-07T04:58:12;22.00;;;16.23;;
1414;SDS011;702;49.466;11.086;2022-12-07T05:00:41;20.83;;;14.83;;
1414;SDS011;702;49.466;11.086;2022-12-07T05:03:09;20.40;;;14.67;;
1414;SDS011;702;49.466;11.086;2022-12-07T05:05:36;25.90;;;15.07;;
1414;SDS011;702;49.466;11.086;2022-12-07T05:08:07;20.87;;;15.27;;
1414;SDS011;702;49.466;11.086;2022-12-07T05:10:35;21.80;;;15.60;;
1414;SDS011;702;49.466;11.086;2022-12-07T05:13:02;20.80;;;15.60;;
1414;SDS011;702;49.466;11.086;2022-12-07T05:15:30;22.33;;;15.03;;
1414;SDS011;702;49.466;11.086;2022-12-07T05:17:57;24.73;;;16.57;;
1414;SDS011;702;49.466;11.086;2022-12-07T05:20:25;22.60;;;15.47;;
1414;SDS011;702;49.466;11.086;2022-12-07T05:22:53;21.63;;;16.80;;
1414;SDS011;702;49.466;11.086;2022-12-07T05:25:20;22.33;;;15.73;;
1414;SDS011;702;49.466;11.086;2022-12-07T05:27:49;23.67;;;16.90;;
1414;SDS011;702;49.466;11.086;2022-12-07T05:30:16;21.33;;;15.30;;
1414;SDS011;702;49.466;11.086;2022-12-07T05:32:44;21.00;;;16.23;;
1414;SDS011;702;49.466;11.086;2022-12-07T05:35:11;27.93;;;17.17;;
1414;SDS011;702;49.466;11.086;2022-12-07T05:37:38;25.30;;;16.20;;
1414;SDS011;702;49.466;11.086;2022-12-07T05:40:05;19.17;;;14.80;;
1414;SDS011;702;49.466;11.086;2022-12-07T05:42:34;22.83;;;15.23;;
1414;SDS011;702;49.466;11.086;2022-12-07T05:45:04;22.77;;;16.37;;
1414;SDS011;702;49.466;11.086;2022-12-07T05:47:32;22.10;;;15.63;;
1414;SDS011;702;49.466;11.086;2022-12-07T05:50:00;22.23;;;15.17;;
1414;SDS011;702;49.466;11.086;2022-12-07T05:52:27;25.90;;;16.40;;
1414;SDS011;702;49.466;11.086;2022-12-07T05:54:54;24.20;;;16.27;;
1414;SDS011;702;49.466;11.086;2022-12-07T05:57:22;24.40;;;15.93;;
1414;SDS011;702;49.466;11.086;2022-12-07T05:59:49;21.67;;;16.40;;
1414;SDS011;702;49.466;11.086;2022-12-07T06:02:16;26.83;;;16.40;;
1414;SDS011;702;49.466;11.086;2022-12-07T06:04:44;22.53;;;15.43;;
1414;SDS011;702;49.466;11.086;2022-12-07T06:07:14;26.00;;;16.77;;
1414;SDS011;702;49.466;11.086;2022-12-07T06:09:43;21.23;;;16.27;;
1414;SDS011;702;49.466;11.086;2022-12-07T06:12:10;22.93;;;16.10;;
1414;SDS011;702;49.466;11.086;2022-12-07T06:14:56;25.37;;;17.43;;
1414;SDS011;702;49.466;11.086;2022-12-07T06:17:25;25.13;;;16.10;;
1414;SDS011;702;49.466;11.086;2022-12-07T06:19:52;25.80;;;18.10;;
1414;SDS011;702;49.466;11.086;2022-12-07T06:22:20;25.50;;;16.63;;
1414;SDS011;702;49.466;11.086;2022-12-07T06:24:47;23.67;;;16.90;;
1414;SDS011;702;49.466;11.086;2022-12-07T06:27:14;24.30;;;17.07;;
1414;SDS011;702;49.466;11.086;2022-12-07T06:29:41;26.93;;;17.03;;
1414;SDS011;702;49.466;11.086;2022-12-07T06:32:08;23.70;;;16.37;;
1414;SDS011;702;49.466;11.086;2022-12-07T06:34:38;25.90;;;16.90;;
1414;SDS011;702;49.466;11.086;2022-12-07T06:37:05;24.17;;;16.17;;
1414;SDS011;702;49.466;11.086;2022-12-07T06:39:33;21.80;;;16.67;;
1414;SDS011;702;49.466;11.086;2022-12-07T06:42:00;24.57;;;18.20;;
1414;SDS011;702;49.466;11.086;2022-12-07T06:44:27;23.57;;;16.80;;
1414;SDS011;702;49.466;11.086;2022-12-07T06:46:54;22.00;;;16.40;;
1414;SDS011;702;49.466;11.086;2022-12-07T06:49:21;27.17;;;17.40;;
1414;SDS011;702;49.466;11.086;2022-12-07T06:51:50;23.97;;;17.33;;
1414;SDS011;702;49.466;11.086;2022-12-07T06:54:17;23.60;;;17.70;;
1414;SDS011;702;49.466;11.086;2022-12-07T06:56:45;22.87;;;15.93;;
1414;SDS011;702;49.466;11.086;2022-12-07T06:59:12;23.10;;;17.00;;
1414;SDS011;702;49.466;11.086;2022-12-07T07:01:39;24.00;;;16.07;;
1414;SDS011;702;49.466;11.086;2022-12-07T07:04:06;27.73;;;17.00;;
1414;SDS011;702;49.466;11.086;2022-12-07T07:06:34;24.47;;;17.20;;
1414;SDS011;702;49.466;11.086;2022-12-07T07:09:04;24.20;;;17.17;;
1414;SDS011;702;49.466;11.086;2022-12-07T07:11:31;24.27;;;16.20;;
1414;SDS011;702;49.466;11.086;2022-12-07T07:14:00;23.40;;;17.13;;
1414;SDS011;702;49.466;11.086;2022-12-07T07:16:28;25.90;;;16.73;;
1414;SDS011;702;49.466;11.086;2022-12-07T07:18:56;20.30;;;14.33;;
1414;SDS011;702;49.466;11.086;2022-12-07T07:21:24;21.70;;;16.43;;
1414;SDS011;702;49.466;11.086;2022-12-07T07:23:51;26.67;;;15.77;;
1414;SDS011;702;49.466;11.086;2022-12-07T07:26:20;23.40;;;16.40;;
1414;SDS011;702;49.466;11.086;2022-12-07T07:28:47;22.57;;;15.40;;
1414;SDS011;702;49.466;11.086;2022-12-07T07:31:14;25.90;;;15.97;;
1414;SDS011;702;49.466;11.086;2022-12-07T07:33:41;23.33;;;16.97;;
1414;SDS011;702;49.466;11.086;2022-12-07T07:36:08;25.23;;;16.60;;
1414;SDS011;702;49.466;11.086;2022-12-07T07:38:36;26.90;;;17.37;;
1414;SDS011;702;49.466;11.086;2022-12-07T07:41:03;25.70;;;16.10;;
1414;SDS011;702;49.466;11.086;2022-12-07T07:43:32;21.93;;;16.80;;
1414;SDS011;702;49.466;11.086;2022-12-07T07:46:00;20.67;;;15.13;;
1414;SDS011;702;49.466;11.086;2022-12-07T07:48:27;23.83;;;16.70;;
1414;SDS011;702;49.466;11.086;2022-12-07T07:50:55;22.43;;;14.90;;
1414;SDS011;702;49.466;11.086;2022-12-07T07:53:22;24.43;;;16.33;;
1414;SDS011;702;49.466;11.086;2022-12-07T07:55:50;21.60;;;15.10;;
1414;SDS011;702;49.466;11.086;2022-12-07T07:58:19;21.10;;;15.40;;
1414;SDS011;702;49.466;11.086;2022-12-07T08:00:47;23.30;;;15.83;;
1414;SDS011;702;49.466;11.086;2022-12-07T08:03:15;23.17;;;15.63;;
1414;SDS011;702;49.466;11.086;2022-12-07T08:05:43;21.77;;;14.87;;
1414;SDS011;702;49.466;11.086;2022-12-07T08:08:10;23.77;;;15.77;;
1414;SDS011;702;49.466;11.086;2022-12-07T08:10:37;22.83;;;16.60;;
1414;SDS011;702;49.466;11.086;2022-12-07T08:13:05;23.03;;;16.33;;
1414;SDS011;702;49.466;11.086;2022-12-07T08:15:39;26.70;;;15.83;;
1414;SDS011;702;49.466;11.086;2022-12-07T08:18:09;23.73;;;16.30;;
1414;SDS011;702;49.466;11.086;2022-12-07T08:20:37;23.97;;;15.83;;
1414;SDS011;702;49.466;11.086;2022-12-07T08:23:05;24.97;;;16.83;;
1414;SDS011;702;49.466;11.086;2022-12-07T08:25:34;22.40;;;14.70;;
1414;SDS011;702;49.466;11.086;2022-12-07T08:28:02;24.07;;;16.47;;
1414;SDS011;702;49.466;11.086;2022-12-07T08:30:29;20.00;;;14.17;;
1414;SDS011;702;49.466;11.086;2022-12-07T08:32:57;24.00;;;16.03;;
1414;SDS011;702;49.466;11.086;2022-12-07T08:35:26;22.30;;;15.80;;
1414;SDS011;702;49.466;11.086;2022-12-07T08:37:53;22.27;;;14.80;;
1414;SDS011;702;49.466;11.086;2022-12-07T08:40:22;22.90;;;15.10;;
1414;SDS011;702;49.466;11.086;2022-12-07T08:42:50;22.63;;;16.50;;
1414;SDS011;702;49.466;11.086;2022-12-07T08:45:18;24.63;;;16.23;;
1414;SDS011;702;49.466;11.086;2022-12-07T08:47:48;27.37;;;15.70;;
1414;SDS011;702;49.466;11.086;2022-12-07T08:50:20;18.73;;;14.83;;
1414;SDS011;702;49.466;11.086;2022-12-07T08:52:51;20.83;;;14.90;;
1414;SDS011;702;49.466;11.086;2022-12-07T08:55:21;21.90;;;13.33;;
1414;SDS011;702;49.466;11.086;2022-12-07T08:57:49;23.13;;;14.63;;
1414;SDS011;702;49.466;11.086;2022-12-07T09:00:17;20.50;;;13.53;;
1414;SDS011;702;49.466;11.086;2022-12-07T09:02:45;17.40;;;11.03;;
1414;SDS011;702;49.466;11.086;2022-12-07T09:05:12;21.47;;;13.30;;
1414;SDS011;702;49.466;11.086;2022-12-07T09:07:41;21.80;;;13.63;;
1414;SDS011;702;49.466;11.086;2022-12-07T09:10:11;24.67;;;11.60;;
1414;SDS011;702;49.466;11.086;2022-12-07T09:12:38;16.20;;;11.00;;
1414;SDS011;702;49.466;11.086;2022-12-07T09:15:06;18.67;;;12.10;;
1414;SDS011;702;49.466;11.086;2022-12-07T09:17:34;18.23;;;12.47;;
1414;SDS011;702;49.466;11.086;2022-12-07T09:20:03;17.70;;;11.87;;
1414;SDS011;702;49.466;11.086;2022-12-07T09:22:32;17.00;;;11.87;;
1414;SDS011;702;49.466;11.086;2022-12-07T09:25:00;18.03;;;10.90;;
1414;SDS011;702;49.466;11.086;2022-12-07T09:27:29;14.97;;;11.07;;
1414;SDS011;702;49.466;11.086;2022-12-07T09:29:58;16.57;;;11.50;;
1414;SDS011;702;49.466;11.086;2022-12-07T09:32:25;20.40;;;11.20;;
1414;SDS011;702;49.466;11.086;2022-12-07T09:34:52;16.40;;;11.60;;
1414;SDS011;702;49.466;11.086;2022-12-07T09:37:19;17.93;;;11.63;;
1414;SDS011;702;49.466;11.086;2022-12-07T09:39:46;18.07;;;11.33;;
1414;SDS011;702;49.466;11.086;2022-12-07T09:42:19;15.40;;;11.10;;
1414;SDS011;702;49.466;11.086;2022-12-07T09:44:56;14.63;;;11.20;;
1414;SDS011;702;49.466;11.086;2022-12-07T09:47:25;16.67;;;11.37;;
1414;SDS011;702;49.466;11.086;2022-12-07T09:49:52;16.27;;;10.80;;
1414;SDS011;702;49.466;11.086;2022-12-07T09:52:27;13.53;;;9.80;;
1414;SDS011;702;49.466;11.086;2022-12-07T09:54:55;17.33;;;12.20;;
1414;SDS011;702;49.466;11.086;2022-12-07T09:57:25;15.80;;;10.40;;
1414;SDS011;702;49.466;11.086;2022-12-07T09:59:59;18.30;;;11.30;;
1414;SDS011;702;49.466;11.086;2022-12-07T10:02:34;16.70;;;11.73;;
1414;SDS011;702;49.466;11.086;2022-12-07T10:05:04;14.40;;;10.77;;
1414;SDS011;702;49.466;11.086;2022-12-07T10:07:33;21.57;;;12.10;;
1414;SDS011;702;49.466;11.086;2022-12-07T10:10:02;19.90;;;11.80;;
1414;SDS011;702;49.466;11.086;2022-12-07T10:12:31;14.43;;;10.87;;
1414;SDS011;702;49.466;11.086;2022-12-07T10:15:44;18.30;;;12.37;;
1414;SDS011;702;49.466;11.086;2022-12-07T10:18:19;15.00;;;10.57;;
1414;SDS011;702;49.466;11.086;2022-12-07T10:21:00;16.53;;;11.50;;
1414;SDS011;702;49.466;11.086;2022-12-07T10:23:39;16.03;;;10.83;;
1414;SDS011;702;49.466;11.086;2022-12-07T10:26:29;18.27;;;11.30;;
1414;SDS011;702;49.466;11.086;2022-12-07T10:28:59;14.37;;;10.53;;
1414;SDS011;702;49.466;11.086;2022-12-07T10:31:40;15.97;;;10.07;;
1414;SDS011;702;49.466;11.086;2022-12-07T10:34:14;17.93;;;11.90;;
1414;SDS011;702;49.466;11.086;2022-12-07T10:36:50;17.20;;;12.00;;
1414;SDS011;702;49.466;11.086;2022-12-07T10:39:20;17.13;;;11.27;;
1414;SDS011;702;49.466;11.086;2022-12-07T10:41:55;16.00;;;10.57;;
1414;SDS011;702;49.466;11.086;2022-12-07T10:44:25;14.60;;;11.50;;
1414;SDS011;702;49.466;11.086;2022-12-07T10:46:57;15.83;;;11.43;;
1414;SDS011;702;49.466;11.086;2022-12-07T10:49:50;12.23;;;10.17;;
1414;SDS011;702;49.466;11.086;2022-12-07T10:52:58;15.40;;;9.83;;
1414;SDS011;702;49.466;11.086;2022-12-07T10:56:15;12.30;;;9.43;;
1414;SDS011;702;49.466;11.086;2022-12-07T10:59:15;14.80;;;10.70;;
1414;SDS011;702;49.466;11.086;2022-12-07T11:02:26;11.73;;;8.57;;
1414;SDS011;702;49.466;11.086;2022-12-07T11:05:15;18.30;;;10.63;;
1414;SDS011;702;49.466;11.086;2022-12-07T11:07:54;14.07;;;10.47;;
1414;SDS011;702;49.466;11.086;2022-12-07T11:10:30;13.43;;;9.70;;
1414;SDS011;702;49.466;11.086;2022-12-07T11:13:16;13.10;;;9.43;;
1414;SDS011;702;49.466;11.086;2022-12-07T11:19:17;16.10;;;11.70;;
1414;SDS011;702;49.466;11.086;2022-12-07T11:21:58;13.70;;;10.57;;
1414;SDS011;702;49.466;11.086;2022-12-07T11:24:32;13.67;;;10.37;;
1414;SDS011;702;49.466;11.086;2022-12-07T11:27:14;16.77;;;11.20;;
1414;SDS011;702;49.466;11.086;2022-12-07T11:29:53;14.77;;;11.83;;
1414;SDS011;702;49.466;11.086;2022-12-07T11:32:49;16.50;;;11.90;;
1414;SDS011;702;49.466;11.086;2022-12-07T11:35:33;14.00;;;11.37;;
1414;SDS011;702;49.466;11.086;2022-12-07T11:38:09;15.13;;;12.20;;
1414;SDS011;702;49.466;11.086;2022-12-07T11:40:42;13.50;;;10.90;;
1414;SDS011;702;49.466;11.086;2022-12-07T11:43:14;12.60;;;9.63;;
1414;SDS011;702;49.466;11.086;2022-12-07T11:45:51;17.00;;;12.40;;
1414;SDS011;702;49.466;11.086;2022-12-07T11:48:28;18.57;;;12.13;;
1414;SDS011;702;49.466;11.086;2022-12-07T11:51:02;14.00;;;12.10;;
1414;SDS011;702;49.466;11.086;2022-12-07T11:53:31;18.10;;;12.70;;
1414;SDS011;702;49.466;11.086;2022-12-07T11:56:07;18.43;;;12.43;;
1414;SDS011;702;49.466;11.086;2022-12-07T12:01:27;19.20;;;11.10;;
1414;SDS011;702;49.466;11.086;2022-12-07T12:04:06;16.70;;;11.87;;
1414;SDS011;702;49.466;11.086;2022-12-07T12:06:48;13.50;;;10.83;;
1414;SDS011;702;49.466;11.086;2022-12-07T12:09:17;15.70;;;12.23;;
1414;SDS011;702;49.466;11.086;2022-12-07T12:11:56;17.73;;;11.93;;
1414;SDS011;702;49.466;11.086;2022-12-07T12:14:54;16.30;;;12.43;;
1414;SDS011;702;49.466;11.086;2022-12-07T12:17:41;15.50;;;12.20;;
1414;SDS011;702;49.466;11.086;2022-12-07T12:20:40;16.83;;;11.90;;
1414;SDS011;702;49.466;11.086;2022-12-07T12:23:15;15.00;;;12.40;;
1414;SDS011;702;49.466;11.086;2022-12-07T12:25:46;16.20;;;11.77;;
1414;SDS011;702;49.466;11.086;2022-12-07T12:28:19;16.17;;;12.40;;
1414;SDS011;702;49.466;11.086;2022-12-07T12:31:04;17.90;;;12.50;;
1414;SDS011;702;49.466;11.086;2022-12-07T12:33:35;13.80;;;11.47;;
1414;SDS011;702;49.466;11.086;2022-12-07T12:41:53;15.50;;;10.47;;
1414;SDS011;702;49.466;11.086;2022-12-07T12:47:56;14.20;;;10.13;;
1414;SDS011;702;49.466;11.086;2022-12-07T12:50:29;15.30;;;12.10;;
1414;SDS011;702;49.466;11.086;2022-12-07T12:53:05;14.10;;;11.10;;
1414;SDS011;702;49.466;11.086;2022-12-07T12:56:11;14.40;;;11.27;;
1414;SDS011;702;49.466;11.086;2022-12-07T13:01:54;19.37;;;13.37;;
1414;SDS011;702;49.466;11.086;2022-12-07T13:04:38;15.67;;;11.97;;
1414;SDS011;702;49.466;11.086;2022-12-07T13:10:22;16.53;;;11.47;;
1414;SDS011;702;49.466;11.086;2022-12-07T13:25:29;15.07;;;10.90;;
1414;SDS011;702;49.466;11.086;2022-12-07T13:28:08;13.83;;;11.80;;
1414;SDS011;702;49.466;11.086;2022-12-07T13:30:44;13.90;;;11.00;;
1414;SDS011;702;49.466;11.086;2022-12-07T13:33:22;15.90;;;11.70;;
1414;SDS011;702;49.466;11.086;2022-12-07T13:35:52;14.93;;;12.13;;
1414;SDS011;702;49.466;11.086;2022-12-07T13:38:25;16.10;;;11.77;;
1414;SDS011;702;49.466;11.086;2022-12-07T13:40:59;15.60;;;11.43;;
1414;SDS011;702;49.466;11.086;2022-12-07T13:43:41;15.60;;;10.70;;
1414;SDS011;702;49.466;11.086;2022-12-07T13:46:11;16.10;;;11.10;;
1414;SDS011;702;49.466;11.086;2022-12-07T13:48:45;14.80;;;11.17;;
1414;SDS011;702;49.466;11.086;2022-12-07T13:51:19;12.27;;;9.40;;
1414;SDS011;702;49.466;11.086;2022-12-07T13:53:50;16.70;;;11.67;;
1414;SDS011;702;49.466;11.086;2022-12-07T13:56:21;14.20;;;11.00;;
1414;SDS011;702;49.466;11.086;2022-12-07T13:58:53;15.63;;;11.60;;
1414;SDS011;702;49.466;11.086;2022-12-07T14:01:21;16.13;;;12.40;;
1414;SDS011;702;49.466;11.086;2022-12-07T14:03:49;15.77;;;11.47;;
1414;SDS011;702;49.466;11.086;2022-12-07T14:06:22;12.67;;;9.70;;
1414;SDS011;702;49.466;11.086;2022-12-07T14:09:05;11.77;;;9.97;;
1414;SDS011;702;49.466;11.086;2022-12-07T14:11:35;14.90;;;10.97;;
1414;SDS011;702;49.466;11.086;2022-12-07T14:14:04;15.47;;;11.67;;
1414;SDS011;702;49.466;11.086;2022-12-07T14:16:33;14.27;;;10.10;;
1414;SDS011;702;49.466;11.086;2022-12-07T14:19:04;15.37;;;10.73;;
1414;SDS011;702;49.466;11.086;2022-12-07T14:22:06;17.10;;;11.70;;
1414;SDS011;702;49.466;11.086;2022-12-07T14:24:41;14.77;;;11.70;;
1414;SDS011;702;49.466;11.086;2022-12-07T14:27:16;16.03;;;12.30;;
1414;SDS011;702;49.466;11.086;2022-12-07T14:29:45;14.93;;;10.27;;
1414;SDS011;702;49.466;11.086;2022-12-07T14:32:18;15.53;;;9.80;;
1414;SDS011;702;49.466;11.086;2022-12-07T14:34:54;11.03;;;8.80;;
1414;SDS011;702;49.466;11.086;2022-12-07T14:37:39;11.93;;;8.40;;
1414;SDS011;702;49.466;11.086;2022-12-07T14:40:12;13.20;;;8.40;;
1414;SDS011;702;49.466;11.086;2022-12-07T14:42:44;13.90;;;10.50;;
1414;SDS011;702;49.466;11.086;2022-12-07T14:45:14;10.23;;;7.80;;
1414;SDS011;702;49.466;11.086;2022-12-07T14:47:45;10.43;;;7.47;;
1414;SDS011;702;49.466;11.086;2022-12-07T14:50:13;9.97;;;6.87;;
1414;SDS011;702;49.466;11.086;2022-12-07T14:52:46;9.70;;;7.77;;
1414;SDS011;702;49.466;11.086;2022-12-07T14:55:18;11.90;;;9.20;;
1414;SDS011;702;49.466;11.086;2022-12-07T14:57:52;11.67;;;9.07;;
1414;SDS011;702;49.466;11.086;2022-12-07T15:00:19;11.83;;;8.40;;
1414;SDS011;702;49.466;11.086;2022-12-07T15:02:49;10.43;;;8.27;;
1414;SDS011;702;49.466;11.086;2022-12-07T15:05:17;12.53;;;8.60;;
1414;SDS011;702;49.466;11.086;2022-12-07T15:07:47;13.20;;;9.07;;
1414;SDS011;702;49.466;11.086;2022-12-07T15:10:17;11.33;;;10.10;;
1414;SDS011;702;49.466;11.086;2022-12-07T15:12:46;14.03;;;9.70;;
1414;SDS011;702;49.466;11.086;2022-12-07T15:15:13;13.50;;;9.67;;
1414;SDS011;702;49.466;11.086;2022-12-07T15:17:42;15.37;;;11.70;;
1414;SDS011;702;49.466;11.086;2022-12-07T15:20:11;14.13;;;10.97;;
1414;SDS011;702;49.466;11.086;2022-12-07T15:22:41;16.53;;;12.03;;
1414;SDS011;702;49.466;11.086;2022-12-07T15:25:13;16.67;;;13.17;;
1414;SDS011;702;49.466;11.086;2022-12-07T15:27:41;16.63;;;12.83;;
1414;SDS011;702;49.466;11.086;2022-12-07T15:30:08;19.10;;;13.50;;
1414;SDS011;702;49.466;11.086;2022-12-07T15:32:36;21.57;;;14.80;;
1414;SDS011;702;49.466;11.086;2022-12-07T15:35:04;22.00;;;16.10;;
1414;SDS011;702;49.466;11.086;2022-12-07T15:37:32;20.47;;;15.63;;
1414;SDS011;702;49.466;11.086;2022-12-07T15:39:59;23.03;;;14.73;;
1414;SDS011;702;49.466;11.086;2022-12-07T15:42:27;22.70;;;15.70;;
1414;SDS011;702;49.466;11.086;2022-12-07T15:44:55;22.67;;;16.67;;
1414;SDS011;702;49.466;11.086;2022-12-07T15:47:30;20.90;;;14.40;;
1414;SDS011;702;49.466;11.086;2022-12-07T15:49:58;21.07;;;15.80;;
1414;SDS011;702;49.466;11.086;2022-12-07T15:52:25;18.50;;;14.63;;
1414;SDS011;702;49.466;11.086;2022-12-07T15:54:52;22.17;;;14.97;;